Petersburg, North Dakota
Current Conditions -  °F | °C
As of 7:38 AM on Friday 28 Nov 2014 (Local Time) from KRDR Reporting Station
Light Snow Light Snow  
Wind Chill: -2°   Ceiling: 500
Heat Index: 10°   Visibility: 5mi
Dew Point:   Wind: 9mph
Humidity: 92%   Direction: 110°ESE
Pressure: 29.96"   Gusts: NA
Location:  48.01°N, 98°W
Report Text: KRDR 281338Z AUTO 11008KT 5SM R35/5000FT -SN BR OVC005 M12/M13 A2996 RMK AO2
Loading
Personal Weather Stations






























Interactive Weather Map New forecast layout! Learn more

10-Day Weather Forecast

Advertisements
Track Severe Weather on mobile